createdAt,value
2023-05-19T00:06:02.849Z,10.63
2023-05-19T00:16:07.284Z,15.70
2023-05-19T00:26:09.324Z,7.88
2023-05-19T00:36:13.247Z,10.52
2023-05-19T00:46:15.285Z,9.68
2023-05-19T00:56:19.196Z,8.40
2023-05-19T01:06:21.220Z,8.65
2023-05-19T01:16:29.132Z,7.55
2023-05-19T01:26:51.942Z,11.02
2023-05-19T01:36:57.809Z,8.45
2023-05-19T01:47:00.742Z,7.78
2023-05-19T01:57:11.060Z,7.68
2023-05-19T02:17:20.436Z,9.35
2023-05-19T02:27:22.432Z,8.02
2023-05-19T02:37:26.066Z,13.50
2023-05-19T02:47:28.170Z,8.85
2023-05-19T02:57:33.143Z,7.07
2023-05-19T03:07:35.123Z,11.27
2023-05-19T03:17:38.608Z,10.02
2023-05-19T03:27:40.652Z,11.45
2023-05-19T03:37:44.060Z,7.03
2023-05-19T03:47:46.173Z,9.98
2023-05-19T03:57:49.534Z,12.50
2023-05-19T04:07:51.483Z,7.35
2023-05-19T04:17:55.679Z,9.55
2023-05-19T04:27:57.799Z,7.25
2023-05-19T04:38:01.283Z,6.07
2023-05-19T04:48:03.442Z,13.70
2023-05-19T04:58:06.878Z,10.93
2023-05-19T05:08:10.315Z,6.15
2023-05-19T05:18:15.041Z,7.97
2023-05-19T05:28:17.150Z,6.63
2023-05-19T05:38:20.502Z,13.57
2023-05-19T05:48:22.987Z,8.93
2023-05-19T05:58:26.341Z,11.95
2023-05-19T06:08:28.358Z,18.02
2023-05-19T06:18:31.753Z,17.30
2023-05-19T06:28:34.006Z,20.83
2023-05-19T06:38:37.368Z,17.50
2023-05-19T06:48:39.392Z,13.52
2023-05-19T06:58:42.754Z,15.98
2023-05-19T07:08:44.798Z,21.25
2023-05-19T07:18:48.685Z,25.10
2023-05-19T07:28:50.699Z,19.55
2023-05-19T07:38:54.092Z,22.83
2023-05-19T07:48:56.075Z,26.33
2023-05-19T07:58:59.387Z,17.63
2023-05-19T08:09:01.406Z,16.70
2023-05-19T08:19:04.810Z,16.40
2023-05-19T08:29:06.807Z,22.92
2023-05-19T08:39:10.186Z,14.93
2023-05-19T08:49:14.182Z,23.35
2023-05-19T08:59:18.743Z,22.10
2023-05-19T09:09:20.747Z,15.73
2023-05-19T09:19:29.239Z,13.88
2023-05-19T09:29:31.340Z,16.40
2023-05-19T09:39:34.752Z,17.92
2023-05-19T09:49:36.774Z,16.70
2023-05-19T09:59:40.812Z,16.95
2023-05-19T10:09:43.846Z,19.08
2023-05-19T10:19:50.560Z,17.75
2023-05-19T10:29:57.332Z,17.52
2023-05-19T10:40:05.903Z,12.77
2023-05-19T10:50:09.946Z,9.63
2023-05-19T11:10:44.274Z,15.10
2023-05-19T11:20:56.327Z,16.33
2023-05-19T11:31:00.842Z,14.70
2023-05-19T11:41:04.045Z,15.57
2023-05-19T11:51:07.994Z,15.65
2023-05-19T12:01:09.965Z,10.43
2023-05-19T12:11:14.102Z,9.93
2023-05-19T12:21:16.210Z,11.70
2023-05-19T12:31:20.039Z,14.02
2023-05-19T12:41:22.131Z,11.75
2023-05-19T12:51:25.488Z,15.43
2023-05-19T13:01:29.386Z,16.95
2023-05-19T13:11:33.086Z,12.35
2023-05-19T13:21:35.032Z,11.70
2023-05-19T13:31:38.507Z,13.80
2023-05-19T13:41:40.578Z,14.98
2023-05-19T13:51:44.327Z,12.88
2023-05-19T14:01:46.421Z,14.20
2023-05-19T14:11:50.054Z,14.65
2023-05-19T14:21:52.033Z,13.70
2023-05-19T14:31:55.436Z,16.83
2023-05-19T14:41:57.961Z,16.10
2023-05-19T14:52:01.329Z,17.05
2023-05-19T15:02:03.294Z,17.63
2023-05-19T15:12:06.849Z,18.33
2023-05-19T15:22:08.970Z,14.20
2023-05-19T15:32:12.346Z,18.05
2023-05-19T15:42:14.434Z,16.25
2023-05-19T15:52:17.788Z,21.23
2023-05-19T16:02:19.976Z,16.33
2023-05-19T16:12:23.501Z,17.10
2023-05-19T16:22:25.584Z,17.55
2023-05-19T16:43:37.676Z,18.05
2023-05-19T16:53:52.315Z,19.75
2023-05-19T17:03:55.693Z,19.77
2023-05-19T17:13:57.758Z,16.45
2023-05-19T17:24:01.108Z,16.80
2023-05-19T17:34:03.138Z,14.07
2023-05-19T17:44:06.546Z,14.55
2023-05-19T17:54:09.128Z,13.88
2023-05-19T18:04:14.629Z,11.55
2023-05-19T18:14:18.217Z,16.25
2023-05-19T18:24:21.546Z,16.02
2023-05-19T18:34:23.532Z,11.57
2023-05-19T18:44:42.916Z,16.95
2023-05-19T18:54:45.017Z,9.97
2023-05-19T19:04:48.398Z,11.15
2023-05-19T19:25:11.001Z,12.07
2023-05-19T19:35:13.114Z,14.45
2023-05-19T19:45:16.700Z,9.88
2023-05-19T19:55:18.785Z,15.88
2023-05-19T20:05:56.219Z,14.18
2023-05-19T20:15:58.304Z,10.85
2023-05-19T20:26:11.120Z,17.85
2023-05-19T20:36:52.233Z,23.10
2023-05-19T20:46:55.604Z,13.57
2023-05-19T20:56:58.129Z,19.23
2023-05-19T21:07:05.310Z,17.95
2023-05-19T21:17:07.722Z,13.40
2023-05-19T21:27:11.224Z,19.65
2023-05-19T21:37:13.210Z,19.45
2023-05-19T21:47:16.597Z,20.95
2023-05-19T21:57:18.533Z,16.50
2023-05-19T22:07:22.002Z,13.30
2023-05-19T22:17:23.978Z,15.98
2023-05-19T22:27:27.379Z,14.55
2023-05-19T22:37:29.375Z,16.70
2023-05-19T22:47:32.692Z,17.27
2023-05-19T22:57:34.747Z,13.43
2023-05-19T23:07:38.108Z,17.25
2023-05-19T23:17:40.122Z,18.27
2023-05-19T23:27:43.486Z,15.07
2023-05-19T23:37:45.481Z,18.27
2023-05-19T23:47:48.898Z,12.20
2023-05-19T23:57:50.926Z,11.57
